Time;durP1;ratioP1;P1;durP2;ratioP2;P2;SDS_P1;SDS_P2;PMS_P1;PMS_P2;Temp;Humidity;BMP_temperature;BMP_pressure;BME280_temperature;BME280_humidity;BME280_pressure;Samples;Min_cycle;Max_cycle;Signal;HPM_P1;HPM_P2
2021/12/29 00:01:47;;;;;;;115.78;44.60;;;;;;;0.52;91.33;99897.03;5007197;28;20029;-46
2021/12/29 00:04:13;;;;;;;126.22;43.50;;;;;;;0.55;91.36;99897.47;5009373;28;20049;-48
2021/12/29 00:06:39;;;;;;;119.97;46.38;;;;;;;0.59;91.04;99897.88;5011413;28;20029;-48
2021/12/29 00:09:04;;;;;;;118.32;44.67;;;;;;;0.60;90.73;99900.31;5012868;28;20502;-47
2021/12/29 00:11:30;;;;;;;115.50;42.38;;;;;;;0.63;90.46;99893.00;4992258;28;20022;-47
2021/12/29 00:13:56;;;;;;;106.28;39.75;;;;;;;0.64;90.50;99898.06;5012018;28;20461;-47
2021/12/29 00:16:21;;;;;;;111.63;42.70;;;;;;;0.64;90.72;99895.41;5013268;28;20061;-47
2021/12/29 00:18:47;;;;;;;122.15;43.85;;;;;;;0.62;90.87;99897.47;5009302;28;20056;-47
2021/12/29 00:21:14;;;;;;;124.03;43.67;;;;;;;0.62;90.73;99902.72;4992489;28;20029;-48
2021/12/29 00:23:39;;;;;;;125.25;43.85;;;;;;;0.63;90.68;99903.53;5012516;28;20358;-48
2021/12/29 00:26:05;;;;;;;111.28;43.92;;;;;;;0.60;91.15;99907.41;5012088;28;20036;-47
2021/12/29 00:28:30;;;;;;;112.40;42.75;;;;;;;0.61;90.97;99911.66;5013023;28;20117;-48
2021/12/29 00:30:56;;;;;;;123.90;44.20;;;;;;;0.61;90.90;99906.38;5010491;28;20449;-47
2021/12/29 00:33:22;;;;;;;117.45;44.97;;;;;;;0.62;90.96;99912.47;5012878;28;20132;-48
2021/12/29 00:35:48;;;;;;;120.25;42.70;;;;;;;0.62;90.70;99913.28;5010350;28;20025;-47
2021/12/29 00:38:14;;;;;;;111.35;43.47;;;;;;;0.59;91.27;99913.69;5012018;28;20308;-47
2021/12/29 00:40:40;;;;;;;112.30;43.22;;;;;;;0.64;90.73;99913.88;5010219;28;20057;-47
2021/12/29 00:43:06;;;;;;;109.97;42.30;;;;;;;0.59;91.31;99914.50;5012818;28;20036;-47
2021/12/29 00:45:35;;;;;;;116.78;44.28;;;;;;;0.60;91.07;99912.66;5014049;28;20180;-48
2021/12/29 00:48:03;;;;;;;118.93;43.15;;;;;;;0.60;90.94;99915.31;5011952;28;20079;-47
2021/12/29 00:50:28;;;;;;;110.00;43.42;;;;;;;0.59;91.40;99918.97;5012220;28;20030;-48
2021/12/29 00:52:54;;;;;;;117.18;43.03;;;;;;;0.60;91.05;99924.03;5009454;28;20026;-47
2021/12/29 00:55:19;;;;;;;105.07;42.65;;;;;;;0.63;90.86;99935.16;5006058;28;20033;-47
2021/12/29 00:57:45;;;;;;;121.07;46.72;;;;;;;0.65;90.70;99928.69;5015712;28;20055;-48
2021/12/29 01:00:17;;;;;;;110.72;43.83;;;;;;;0.65;90.75;99933.13;5012424;28;20075;-47
2021/12/29 01:02:43;;;;;;;121.75;44.28;;;;;;;0.66;90.76;99935.56;5008994;28;20048;-47
2021/12/29 01:05:09;;;;;;;118.88;44.08;;;;;;;0.64;90.75;99937.59;5009219;28;20041;-47
2021/12/29 01:07:35;;;;;;;118.30;44.03;;;;;;;0.65;90.80;99936.59;5011742;28;20038;-47
2021/12/29 01:10:05;;;;;;;127.55;42.17;;;;;;;0.64;90.95;99948.16;5009023;28;20040;-47
2021/12/29 01:12:31;;;;;;;114.20;42.05;;;;;;;0.67;90.66;99947.75;5008851;28;20183;-48
2021/12/29 01:14:57;;;;;;;122.57;43.55;;;;;;;0.68;91.02;99948.53;5014695;28;20045;-48
2021/12/29 01:17:24;;;;;;;125.43;44.70;;;;;;;0.68;90.79;99954.63;5014324;28;20025;-48
2021/12/29 01:19:53;;;;;;;127.20;44.17;;;;;;;0.68;90.68;99965.19;5014813;28;20521;-47
2021/12/29 01:22:20;;;;;;;116.18;42.67;;;;;;;0.65;90.94;99955.03;5014963;28;20124;-48
2021/12/29 01:24:46;;;;;;;114.68;41.08;;;;;;;0.64;91.38;99950.78;5015994;28;20028;-47
2021/12/29 01:27:14;;;;;;;112.97;43.38;;;;;;;0.68;90.97;99962.53;5012780;28;20034;-48
2021/12/29 01:29:40;;;;;;;123.00;43.13;;;;;;;0.67;91.31;99949.56;5017184;28;20545;-47
2021/12/29 01:32:06;;;;;;;126.35;43.13;;;;;;;0.68;90.90;99959.91;5012949;28;20444;-47
2021/12/29 01:34:32;;;;;;;124.18;42.97;;;;;;;0.67;91.10;99966.19;5012342;28;20033;-48
2021/12/29 01:36:59;;;;;;;119.75;43.15;;;;;;;0.69;90.96;99965.97;5015593;28;20532;-48
2021/12/29 01:39:25;;;;;;;118.60;42.72;;;;;;;0.72;91.12;99963.78;5015288;28;20179;-47
2021/12/29 01:41:52;;;;;;;128.63;44.83;;;;;;;0.71;91.23;99964.78;5012280;28;20022;-48
2021/12/29 01:44:21;;;;;;;129.68;40.53;;;;;;;0.71;91.04;99964.78;5013605;28;20057;-48
2021/12/29 01:46:47;;;;;;;128.57;47.05;;;;;;;0.72;91.36;99963.78;5015770;28;20112;-48
2021/12/29 01:49:13;;;;;;;130.27;44.67;;;;;;;0.69;91.46;99968.63;5015873;28;20109;-48
2021/12/29 01:51:49;;;;;;;131.07;43.85;;;;;;;0.71;91.78;99977.94;5010035;28;20029;-48
2021/12/29 01:54:23;;;;;;;121.35;42.25;;;;;;;0.70;91.54;99976.31;5002941;28;20470;-48
2021/12/29 01:56:58;;;;;;;121.72;44.70;;;;;;;0.72;91.31;99984.88;5011234;28;20022;-48
2021/12/29 01:59:25;;;;;;;115.40;41.30;;;;;;;0.72;91.53;99979.59;5012016;28;20041;-48
2021/12/29 02:01:51;;;;;;;104.07;39.08;;;;;;;0.71;91.66;99988.50;5011773;28;20021;-48
2021/12/29 02:04:18;;;;;;;112.57;43.10;;;;;;;0.75;91.59;99991.56;5012918;28;20485;-48
2021/12/29 02:06:43;;;;;;;117.47;41.60;;;;;;;0.72;91.59;99982.25;5015719;28;20033;-49
2021/12/29 02:09:09;;;;;;;110.07;40.50;;;;;;;0.73;91.56;99975.94;5012824;28;20022;-49
2021/12/29 02:11:37;;;;;;;113.80;43.33;;;;;;;0.71;91.97;99972.69;5008010;28;20038;-48
2021/12/29 02:14:05;;;;;;;120.32;44.15;;;;;;;0.71;91.94;99977.94;5011920;28;20021;-48
2021/12/29 02:16:31;;;;;;;116.32;44.13;;;;;;;0.72;92.01;99982.25;5013175;28;20038;-48
2021/12/29 02:19:02;;;;;;;121.70;43.63;;;;;;;0.71;91.89;99983.22;5015087;28;20175;-48
2021/12/29 02:21:30;;;;;;;107.93;40.65;;;;;;;0.73;92.01;99988.31;5015039;28;20079;-47
2021/12/29 02:26:29;;;;;;;109.13;41.35;;;;;;;0.74;91.93;99995.22;5011775;28;20029;-48
2021/12/29 02:28:56;;;;;;;119.47;40.00;;;;;;;0.75;92.01;100002.13;5011795;28;20048;-48
2021/12/29 02:31:23;;;;;;;107.85;39.08;;;;;;;0.74;92.42;100000.50;5012794;28;20512;-48
2021/12/29 02:33:49;;;;;;;111.13;40.15;;;;;;;0.74;91.86;100008.41;5015373;28;20516;-47
2021/12/29 02:36:18;;;;;;;115.68;43.78;;;;;;;0.76;91.73;100011.66;5012335;28;20033;-48
2021/12/29 02:38:48;;;;;;;111.85;39.67;;;;;;;0.74;92.12;100017.13;5012540;28;20036;-48
2021/12/29 02:41:14;;;;;;;117.50;40.75;;;;;;;0.79;91.78;100013.88;5012341;28;20036;-48
2021/12/29 02:43:41;;;;;;;108.47;40.35;;;;;;;0.78;91.50;100010.44;5014476;28;20034;-48
2021/12/29 02:46:13;;;;;;;108.30;40.55;;;;;;;0.78;91.65;100006.97;4994989;28;20048;-48
2021/12/29 02:48:52;;;;;;;113.43;39.90;;;;;;;0.75;92.01;100010.84;5000971;28;20029;-48
2021/12/29 02:51:18;;;;;;;110.75;41.28;;;;;;;0.74;92.31;100014.47;5012034;28;20038;-48
2021/12/29 02:53:43;;;;;;;120.50;42.13;;;;;;;0.73;92.13;100018.13;5013599;28;20029;-48
2021/12/29 02:56:09;;;;;;;93.30;38.15;;;;;;;0.73;91.88;100019.97;5014004;28;20108;-48
2021/12/29 02:58:35;;;;;;;103.38;38.80;;;;;;;0.75;92.14;100018.75;5012682;28;20033;-48
2021/12/29 03:01:05;;;;;;;111.22;40.45;;;;;;;0.78;91.75;100022.78;5014824;28;20036;-48
2021/12/29 03:03:33;;;;;;;102.70;39.22;;;;;;;0.75;92.07;100018.75;5011964;28;20021;-48
2021/12/29 03:05:58;;;;;;;104.05;38.70;;;;;;;0.78;91.90;100020.16;5012671;28;20041;-48
2021/12/29 03:08:24;;;;;;;101.43;38.90;;;;;;;0.77;91.83;100021.19;5011170;28;20059;-48
2021/12/29 03:10:52;;;;;;;103.43;37.38;;;;;;;0.77;92.13;100024.63;5010367;28;20109;-48
2021/12/29 03:13:19;;;;;;;110.63;40.08;;;;;;;0.79;91.55;100014.69;5010580;28;20105;-48
2021/12/29 03:15:45;;;;;;;106.97;40.95;;;;;;;0.82;91.46;100024.00;5012987;28;20025;-48
2021/12/29 03:18:10;;;;;;;109.78;39.30;;;;;;;0.78;92.04;100017.53;5015795;28;20033;-47
2021/12/29 03:20:36;;;;;;;106.72;40.22;;;;;;;0.77;91.77;100011.44;5012333;28;20526;-48
2021/12/29 03:23:02;;;;;;;104.38;41.72;;;;;;;0.80;91.51;100011.03;5013801;28;20095;-48
2021/12/29 03:25:28;;;;;;;113.97;41.15;;;;;;;0.82;91.23;100010.81;5018033;28;20397;-47
2021/12/29 03:27:59;;;;;;;116.53;41.53;;;;;;;0.81;91.21;100015.28;5014405;28;20033;-47
2021/12/29 03:30:35;;;;;;;112.20;39.78;;;;;;;0.80;91.18;100021.56;5009189;28;20018;-47
2021/12/29 03:33:06;;;;;;;101.72;39.42;;;;;;;0.82;91.67;100024.00;5014660;28;20612;-48
2021/12/29 03:35:34;;;;;;;98.55;38.35;;;;;;;0.81;91.23;100030.31;5012229;28;20034;-47
2021/12/29 03:38:02;;;;;;;108.40;38.35;;;;;;;0.77;91.67;100032.53;5012973;28;20044;-48
2021/12/29 03:40:28;;;;;;;103.45;37.13;;;;;;;0.80;91.37;100037.41;5010458;28;20464;-47
2021/12/29 03:42:55;;;;;;;96.57;38.00;;;;;;;0.83;91.19;100047.53;4994641;28;20037;-48
2021/12/29 03:45:20;;;;;;;94.10;34.72;;;;;;;0.80;91.29;100045.31;5011846;28;20049;-47
2021/12/29 03:47:46;;;;;;;99.63;36.95;;;;;;;0.79;90.96;100046.31;5010553;28;20030;-48
2021/12/29 03:50:11;;;;;;;96.15;37.13;;;;;;;0.77;91.30;100051.00;5009453;28;20034;-48
2021/12/29 03:52:37;;;;;;;95.18;36.90;;;;;;;0.77;91.95;100050.19;5010975;28;20025;-47
2021/12/29 03:55:04;;;;;;;96.10;36.25;;;;;;;0.77;91.71;100053.63;5012211;28;20036;-48
2021/12/29 03:57:30;;;;;;;101.97;36.15;;;;;;;0.81;91.38;100052.22;5010056;28;20171;-48
2021/12/29 03:59:55;;;;;;;90.50;37.85;;;;;;;0.79;91.76;100056.88;5010828;28;20132;-48
2021/12/29 04:02:21;;;;;;;101.35;36.45;;;;;;;0.77;91.72;100053.63;5010102;28;20037;-47
2021/12/29 04:04:47;;;;;;;100.55;37.05;;;;;;;0.80;91.60;100060.31;5014145;28;20021;-48
2021/12/29 04:07:12;;;;;;;96.32;36.30;;;;;;;0.79;91.73;100056.88;5012477;28;20119;-48
2021/12/29 04:09:38;;;;;;;100.68;38.38;;;;;;;0.78;91.88;100065.78;5014742;28;20036;-47
2021/12/29 04:12:04;;;;;;;97.03;37.75;;;;;;;0.76;91.74;100067.81;5009595;28;20563;-48
2021/12/29 04:14:29;;;;;;;98.90;38.05;;;;;;;0.77;91.93;100069.44;5012084;28;20076;-47
2021/12/29 04:16:57;;;;;;;96.55;35.70;;;;;;;0.77;91.94;100080.00;5009887;28;20039;-47
2021/12/29 04:19:29;;;;;;;89.70;36.22;;;;;;;0.76;92.13;100081.00;5014284;28;20774;-47
2021/12/29 04:21:57;;;;;;;96.80;36.08;;;;;;;0.77;92.01;100085.28;5010401;28;20025;-48
2021/12/29 04:24:24;;;;;;;101.70;36.08;;;;;;;0.79;92.22;100096.44;5014732;28;20046;-47
2021/12/29 04:26:50;;;;;;;97.72;35.25;;;;;;;0.81;91.93;100088.31;4999149;28;20029;-48
2021/12/29 04:29:16;;;;;;;97.72;36.63;;;;;;;0.82;92.20;100084.66;4969883;28;1241598;-48
2021/12/29 04:31:43;;;;;;;114.63;38.95;;;;;;;0.81;91.92;100083.84;5011084;28;20026;-47
2021/12/29 04:34:09;;;;;;;104.38;37.45;;;;;;;0.81;92.05;100089.13;5013266;28;20034;-48
2021/12/29 04:36:35;;;;;;;106.45;35.90;;;;;;;0.85;91.96;100089.53;5015069;28;20025;-48
2021/12/29 04:39:03;;;;;;;94.65;35.88;;;;;;;0.86;91.63;100077.97;5013980;28;20435;-48
2021/12/29 04:41:29;;;;;;;88.60;36.08;;;;;;;0.85;91.69;100077.16;5011150;28;20022;-47
2021/12/29 04:43:54;;;;;;;91.68;34.80;;;;;;;0.87;91.69;100087.50;5011118;28;20509;-47
2021/12/29 04:46:27;;;;;;;109.72;38.42;;;;;;;0.85;91.80;100090.34;5014649;28;20071;-47
2021/12/29 04:48:59;;;;;;;96.88;37.22;;;;;;;0.83;92.23;100095.00;5014353;28;20073;-48
2021/12/29 04:51:33;;;;;;;106.13;35.38;;;;;;;0.86;92.34;100107.78;5018399;28;20091;-47
2021/12/29 04:53:59;;;;;;;105.38;37.95;;;;;;;0.85;91.92;100108.00;5015183;28;20037;-47
2021/12/29 04:56:24;;;;;;;106.88;38.50;;;;;;;0.85;92.12;100108.81;5013155;28;20405;-47
2021/12/29 04:58:50;;;;;;;102.07;35.25;;;;;;;0.87;91.92;100106.78;5013982;28;20026;-47
2021/12/29 05:01:15;;;;;;;105.38;36.88;;;;;;;0.88;91.80;100118.13;5019548;28;20511;-47
2021/12/29 05:03:43;;;;;;;105.50;37.63;;;;;;;0.88;91.73;100108.41;5017017;28;20112;-48
2021/12/29 05:08:34;;;;;;;104.50;36.03;;;;;;;0.92;91.60;100121.22;5005903;28;20409;-48
2021/12/29 05:11:05;;;;;;;119.55;36.33;;;;;;;0.95;91.37;100128.72;5014149;28;20034;-47
2021/12/29 05:13:33;;;;;;;115.82;38.05;;;;;;;0.91;91.81;100120.41;5015199;28;20033;-47
2021/12/29 05:15:59;;;;;;;103.45;36.03;;;;;;;0.86;93.08;100126.25;5015615;28;20218;-47
2021/12/29 05:18:27;;;;;;;106.55;36.42;;;;;;;0.89;92.23;100130.31;5014236;28;20022;-48
2021/12/29 05:20:54;;;;;;;104.38;37.08;;;;;;;0.88;92.00;100129.50;5014508;28;20032;-47
2021/12/29 05:23:20;;;;;;;105.00;35.05;;;;;;;0.88;92.67;100133.97;5016040;28;20033;-48
2021/12/29 05:25:47;;;;;;;103.32;35.58;;;;;;;0.84;93.37;100133.56;5014820;28;20026;-47
2021/12/29 05:28:12;;;;;;;96.50;35.13;;;;;;;0.82;93.15;100145.31;5014234;28;20472;-47
2021/12/29 05:30:38;;;;;;;93.93;35.45;;;;;;;0.81;92.83;100151.59;5015263;28;20045;-47
2021/12/29 05:33:05;;;;;;;99.40;33.60;;;;;;;0.83;92.85;100153.03;5019732;28;20035;-48
2021/12/29 05:35:30;;;;;;;106.65;36.42;;;;;;;0.84;92.43;100156.47;5016141;28;20041;-47
2021/12/29 05:37:56;;;;;;;101.10;33.80;;;;;;;0.87;92.50;100156.06;5015050;28;20398;-48
2021/12/29 05:40:24;;;;;;;95.75;33.80;;;;;;;0.88;92.73;100169.06;5015745;28;20022;-48
2021/12/29 05:42:50;;;;;;;103.78;34.95;;;;;;;0.83;93.11;100171.50;5015129;28;20029;-48
2021/12/29 05:45:15;;;;;;;94.13;34.00;;;;;;;0.78;93.80;100176.56;5013482;28;20033;-48
2021/12/29 05:47:41;;;;;;;94.93;34.13;;;;;;;0.78;93.66;100184.47;5016609;28;20028;-47
2021/12/29 05:50:10;;;;;;;103.53;35.53;;;;;;;0.78;93.42;100189.75;5015023;28;20498;-47
2021/12/29 05:52:36;;;;;;;102.68;33.72;;;;;;;0.76;93.80;100194.41;5017152;28;20128;-47
2021/12/29 05:55:02;;;;;;;119.07;37.90;;;;;;;0.81;93.15;100194.59;5017866;28;20647;-48
2021/12/29 05:57:27;;;;;;;117.30;35.00;;;;;;;0.83;93.14;100191.78;5016236;28;20038;-47
2021/12/29 05:59:53;;;;;;;104.93;34.30;;;;;;;0.83;93.51;100197.84;5012431;28;20040;-48
2021/12/29 06:02:19;;;;;;;111.07;35.97;;;;;;;0.85;92.96;100198.47;5016425;28;20108;-48
2021/12/29 06:04:44;;;;;;;110.07;36.25;;;;;;;0.86;93.05;100202.72;5017117;28;20390;-47
2021/12/29 06:07:10;;;;;;;114.60;34.50;;;;;;;0.88;92.85;100205.97;5016074;28;20104;-48
2021/12/29 06:09:35;;;;;;;109.90;35.88;;;;;;;0.84;94.17;100210.03;5018292;28;20393;-47
2021/12/29 06:12:01;;;;;;;92.40;32.13;;;;;;;0.88;93.21;100213.91;5017920;28;20735;-48
2021/12/29 06:14:26;;;;;;;102.45;33.88;;;;;;;0.87;93.21;100212.28;5015709;28;20107;-48
2021/12/29 06:16:52;;;;;;;118.25;36.35;;;;;;;0.89;93.04;100214.72;5013316;28;20084;-49
2021/12/29 06:19:17;;;;;;;117.22;37.28;;;;;;;0.90;92.79;100211.09;5016367;28;20033;-48
2021/12/29 06:21:43;;;;;;;103.88;33.35;;;;;;;0.95;92.35;100207.84;5011584;28;20299;-48
2021/12/29 06:24:09;;;;;;;114.00;34.63;;;;;;;0.93;92.45;100209.88;5015648;28;20129;-48
2021/12/29 06:26:34;;;;;;;104.63;35.85;;;;;;;0.94;92.25;100214.13;5013838;28;20120;-48
2021/12/29 06:29:00;;;;;;;113.18;34.65;;;;;;;0.93;92.18;100221.25;5015527;28;20048;-47
2021/12/29 06:31:26;;;;;;;102.93;34.45;;;;;;;0.93;92.22;100221.25;5014479;28;20124;-48
2021/12/29 06:33:52;;;;;;;110.80;34.15;;;;;;;0.96;92.28;100222.66;5013651;28;20033;-48
2021/12/29 06:36:17;;;;;;;110.40;36.08;;;;;;;0.94;92.54;100228.13;5015656;28;20466;-48
2021/12/29 06:38:43;;;;;;;107.50;32.80;;;;;;;0.93;92.43;100226.50;5014975;28;20037;-48
2021/12/29 06:41:09;;;;;;;110.78;35.95;;;;;;;0.93;91.96;100229.16;5013743;28;20292;-47
2021/12/29 06:43:34;;;;;;;97.53;32.83;;;;;;;0.94;92.27;100240.53;5016063;28;20045;-48
2021/12/29 06:46:00;;;;;;;89.25;32.45;;;;;;;0.94;92.31;100243.97;5015068;28;20079;-47
2021/12/29 06:48:25;;;;;;;99.78;33.00;;;;;;;0.95;92.19;100247.41;5016523;28;20037;-48
2021/12/29 06:50:51;;;;;;;106.18;34.42;;;;;;;0.94;92.21;100259.78;5015289;28;20102;-48
2021/12/29 06:53:17;;;;;;;109.63;34.28;;;;;;;0.93;92.61;100263.44;5016522;28;20273;-48
2021/12/29 06:55:43;;;;;;;95.25;31.83;;;;;;;0.95;92.39;100271.16;5015152;28;20029;-47
2021/12/29 06:58:12;;;;;;;123.75;36.95;;;;;;;0.93;92.08;100273.19;5011906;28;20060;-47
2021/12/29 07:00:39;;;;;;;103.35;32.97;;;;;;;0.94;92.37;100277.44;4982149;28;20028;-48
2021/12/29 07:03:05;;;;;;;119.72;36.15;;;;;;;0.94;92.53;100278.25;5012369;28;20053;-47
2021/12/29 07:05:31;;;;;;;112.70;35.13;;;;;;;0.95;92.00;100284.34;5014932;28;20044;-48
2021/12/29 07:07:57;;;;;;;107.80;33.50;;;;;;;0.96;92.09;100278.88;5013241;28;20045;-48
2021/12/29 07:10:23;;;;;;;115.03;35.78;;;;;;;1.00;91.94;100287.19;5014234;28;20033;-48
2021/12/29 07:12:49;;;;;;;100.65;33.17;;;;;;;0.98;92.36;100297.13;5013924;28;20025;-48
2021/12/29 07:15:16;;;;;;;110.30;36.33;;;;;;;0.97;92.41;100291.06;5016401;28;20500;-47
2021/12/29 07:17:41;;;;;;;99.18;36.17;;;;;;;0.98;92.32;100297.13;5014700;28;20030;-47
2021/12/29 07:20:07;;;;;;;100.28;31.83;;;;;;;1.00;92.13;100292.47;5014197;28;20497;-48
2021/12/29 07:22:33;;;;;;;119.40;36.97;;;;;;;1.00;92.34;100301.19;5013196;28;20072;-48
2021/12/29 07:24:59;;;;;;;94.45;31.80;;;;;;;1.00;92.51;100310.94;5012157;28;20275;-47
2021/12/29 07:27:24;;;;;;;105.00;33.35;;;;;;;1.00;92.42;100306.47;5013618;28;20091;-47
2021/12/29 07:29:50;;;;;;;96.70;31.17;;;;;;;1.01;92.55;100315.22;5009848;28;20030;-48
2021/12/29 07:32:15;;;;;;;122.40;34.42;;;;;;;1.02;92.64;100314.19;5011073;28;20073;-48
2021/12/29 07:34:41;;;;;;;102.85;30.90;;;;;;;1.03;92.49;100321.09;5011582;28;20033;-47
2021/12/29 07:37:07;;;;;;;104.43;33.65;;;;;;;1.03;92.46;100324.53;5012511;28;20112;-48
2021/12/29 07:39:32;;;;;;;96.60;33.35;;;;;;;1.02;92.53;100320.28;5011949;28;20072;-48
2021/12/29 07:41:58;;;;;;;101.22;33.75;;;;;;;1.03;92.44;100321.09;5008182;28;20025;-48
2021/12/29 07:44:25;;;;;;;98.40;32.67;;;;;;;1.03;92.39;100321.09;5006931;28;20432;-48
2021/12/29 07:46:54;;;;;;;91.72;31.15;;;;;;;1.02;92.59;100328.19;5013084;28;20036;-47
2021/12/29 07:49:21;;;;;;;95.35;32.30;;;;;;;1.03;92.29;100335.09;5010450;28;20118;-47
2021/12/29 07:51:47;;;;;;;90.88;29.85;;;;;;;1.04;92.25;100333.28;5012834;28;20025;-48
2021/12/29 07:54:14;;;;;;;84.10;31.92;;;;;;;1.05;92.18;100329.63;5012605;28;20052;-48
2021/12/29 07:56:41;;;;;;;83.90;31.63;;;;;;;1.05;92.09;100330.44;5010968;28;20033;-47
2021/12/29 07:59:06;;;;;;;90.13;30.90;;;;;;;1.08;92.04;100327.44;5007699;28;20124;-47
2021/12/29 08:01:32;;;;;;;99.32;31.13;;;;;;;1.09;91.93;100330.88;5004076;28;20440;-47
2021/12/29 08:03:58;;;;;;;100.43;31.05;;;;;;;1.10;91.91;100335.16;5002036;28;20034;-48
2021/12/29 08:06:24;;;;;;;86.30;30.55;;;;;;;1.09;91.88;100334.34;5003693;28;20084;-48
2021/12/29 08:08:49;;;;;;;85.53;30.27;;;;;;;1.12;91.91;100335.75;5003425;28;20034;-48
2021/12/29 08:11:16;;;;;;;80.22;27.73;;;;;;;1.14;91.86;100339.03;5002953;28;20029;-48
2021/12/29 08:13:42;;;;;;;76.05;26.58;;;;;;;1.15;92.13;100343.28;5004740;28;20029;-48
2021/12/29 08:16:07;;;;;;;85.07;31.13;;;;;;;1.15;91.74;100343.28;5009897;28;20057;-48
2021/12/29 08:18:33;;;;;;;90.90;29.85;;;;;;;1.14;91.33;100333.75;5011821;28;20034;-48
2021/12/29 08:20:59;;;;;;;90.68;29.48;;;;;;;1.16;91.54;100337.81;5012928;28;20493;-48
2021/12/29 08:23:24;;;;;;;82.47;27.67;;;;;;;1.18;91.76;100337.59;5010810;28;20473;-48
2021/12/29 08:25:50;;;;;;;99.15;33.10;;;;;;;1.21;91.51;100329.28;5013033;28;20018;-47
2021/12/29 08:28:17;;;;;;;85.57;29.05;;;;;;;1.23;91.61;100342.28;5012049;28;20044;-48
2021/12/29 08:30:43;;;;;;;77.38;28.40;;;;;;;1.24;91.68;100355.28;5014319;28;20037;-48
2021/12/29 08:33:09;;;;;;;82.18;27.58;;;;;;;1.26;92.06;100353.28;5014779;28;20536;-48
2021/12/29 08:35:34;;;;;;;96.55;31.70;;;;;;;1.25;91.62;100356.91;5011429;28;20507;-48
2021/12/29 08:38:00;;;;;;;116.43;34.72;;;;;;;1.27;91.44;100360.19;5014564;28;20053;-48
2021/12/29 08:40:26;;;;;;;129.85;36.47;;;;;;;1.31;91.47;100365.88;5013209;28;20148;-48
2021/12/29 08:42:55;;;;;;;98.40;32.55;;;;;;;1.25;91.40;100359.56;5014668;28;20025;-48
2021/12/29 08:45:22;;;;;;;99.20;31.77;;;;;;;1.25;91.68;100364.00;5014385;28;20369;-47
2021/12/29 08:47:48;;;;;;;114.47;34.58;;;;;;;1.32;91.41;100372.78;5014248;28;20080;-48
2021/12/29 08:50:16;;;;;;;117.90;33.22;;;;;;;1.32;91.81;100370.97;5013477;28;20584;-48
2021/12/29 08:52:42;;;;;;;116.00;35.58;;;;;;;1.34;91.94;100379.50;5001226;28;20196;-48
2021/12/29 08:55:11;;;;;;;104.00;31.92;;;;;;;1.34;91.90;100376.06;5015879;28;20034;-48
2021/12/29 08:57:36;;;;;;;132.32;36.00;;;;;;;1.30;92.07;100380.91;5013385;28;20034;-47
2021/12/29 09:00:08;;;;;;;122.53;36.05;;;;;;;1.27;92.38;100381.31;5002467;28;20452;-47
2021/12/29 09:02:33;;;;;;;137.95;35.67;;;;;;;1.26;92.84;100390.25;5015548;28;20188;-48
2021/12/29 09:04:58;;;;;;;126.82;34.95;;;;;;;1.24;93.21;100394.88;5013579;28;20508;-48
2021/12/29 09:07:24;;;;;;;142.35;35.15;;;;;;;1.25;93.25;100398.31;5014973;28;20038;-49
2021/12/29 09:09:50;;;;;;;99.15;31.58;;;;;;;1.23;93.25;100395.88;5016050;28;20310;-47
2021/12/29 09:12:15;;;;;;;80.43;28.25;;;;;;;1.27;93.03;100402.44;5011884;28;20138;-48
2021/12/29 09:14:41;;;;;;;172.07;36.05;;;;;;;1.34;93.15;100408.53;5013144;28;20037;-47
2021/12/29 09:17:06;;;;;;;134.98;35.47;;;;;;;1.35;93.50;100414.63;5017047;28;20044;-48
2021/12/29 09:19:35;;;;;;;97.35;31.63;;;;;;;1.33;92.71;100417.47;5011715;28;20032;-47
2021/12/29 09:22:00;;;;;;;147.77;34.90;;;;;;;1.35;93.16;100420.72;5012287;28;20120;-47
2021/12/29 09:24:26;;;;;;;94.30;30.35;;;;;;;1.35;93.20;100423.38;5015895;28;20124;-48
2021/12/29 09:26:51;;;;;;;140.70;33.78;;;;;;;1.37;93.26;100420.53;5012837;28;20030;-48
2021/12/29 09:29:17;;;;;;;157.73;35.85;;;;;;;1.38;93.24;100422.97;5015275;28;20500;-48
2021/12/29 09:31:42;;;;;;;108.88;32.00;;;;;;;1.37;93.26;100423.97;5012386;28;20466;-48
2021/12/29 09:34:08;;;;;;;109.65;34.35;;;;;;;1.38;93.21;100428.25;5013446;28;20040;-47
2021/12/29 09:36:33;;;;;;;125.63;35.55;;;;;;;1.40;93.02;100428.88;5012204;28;20740;-48
2021/12/29 09:39:00;;;;;;;97.35;29.05;;;;;;;1.43;92.88;100427.66;5013612;28;20029;-48
2021/12/29 09:41:26;;;;;;;154.63;34.58;;;;;;;1.46;93.00;100428.09;5014773;28;20018;-48
2021/12/29 09:43:51;;;;;;;117.13;33.45;;;;;;;1.43;92.81;100428.47;5015167;28;20037;-48
2021/12/29 09:46:17;;;;;;;97.43;32.30;;;;;;;1.44;92.80;100424.84;5016025;28;20489;-48
2021/12/29 09:48:43;;;;;;;121.22;30.92;;;;;;;1.49;92.96;100425.06;5015783;28;20065;-48
2021/12/29 09:51:11;;;;;;;88.95;29.48;;;;;;;1.45;92.48;100429.13;5010954;28;20021;-48
2021/12/29 09:53:37;;;;;;;101.43;31.15;;;;;;;1.47;92.65;100429.72;5015399;28;20154;-48
2021/12/29 09:56:03;;;;;;;134.00;35.90;;;;;;;1.49;92.68;100437.44;5013106;28;20043;-48
2021/12/29 09:58:29;;;;;;;93.70;31.98;;;;;;;1.50;92.15;100436.44;5014691;28;20031;-48
2021/12/29 10:00:59;;;;;;;109.03;31.45;;;;;;;1.50;91.99;100437.25;5011347;28;20123;-48
2021/12/29 10:03:27;;;;;;;104.72;33.53;;;;;;;1.49;92.14;100438.25;5015174;28;20282;-48
2021/12/29 10:05:56;;;;;;;104.97;32.55;;;;;;;1.50;92.10;100429.31;5016173;28;20063;-47
2021/12/29 10:08:31;;;;;;;119.97;34.60;;;;;;;1.54;92.15;100434.22;5012574;28;20104;-47
2021/12/29 10:11:00;;;;;;;;;;;;;;;1.49;92.22;100430.34;5013420;28;20037;-48
2021/12/29 10:13:32;;;;;;;97.32;29.92;;;;;;;1.54;91.91;100431.56;5015115;28;19929;-48
2021/12/29 10:16:08;;;;;;;91.90;30.63;;;;;;;1.56;91.64;100426.91;4999070;28;20190;-48
2021/12/29 10:18:41;;;;;;;90.90;30.90;;;;;;;1.57;91.61;100429.34;5013921;28;20159;-48
2021/12/29 10:21:10;;;;;;;101.32;31.15;;;;;;;1.58;91.52;100432.81;5016095;28;20401;-48
2021/12/29 10:23:39;;;;;;;94.88;31.17;;;;;;;1.61;91.87;100429.75;5012864;28;20030;-49
2021/12/29 10:26:11;;;;;;;98.38;30.90;;;;;;;1.64;92.07;100432.03;5016217;28;20037;-48
2021/12/29 10:28:41;;;;;;;97.00;30.67;;;;;;;1.68;92.10;100438.53;5010092;28;20103;-48
2021/12/29 10:31:19;;;;;;;91.47;31.40;;;;;;;1.69;91.79;100434.88;5010819;28;20026;-49
2021/12/29 10:33:53;;;;;;;103.50;30.73;;;;;;;1.71;91.76;100430.22;5013873;28;20026;-48
2021/12/29 10:36:28;;;;;;;96.60;30.42;;;;;;;1.74;91.52;100441.19;5013821;28;20119;-48
2021/12/29 10:39:05;;;;;;;86.80;30.77;;;;;;;1.77;91.74;100447.91;5013530;28;20497;-49
2021/12/29 10:41:42;;;;;;;98.93;31.85;;;;;;;1.77;91.37;100447.91;5014331;28;20017;-49
2021/12/29 10:44:07;;;;;;;83.68;28.48;;;;;;;1.78;91.62;100447.72;5015339;28;20211;-48
2021/12/29 10:46:33;;;;;;;85.00;30.92;;;;;;;1.80;91.77;100450.19;5011792;28;20626;-48
2021/12/29 10:49:03;;;;;;;96.53;28.90;;;;;;;1.83;92.00;100441.03;4999431;28;20500;-49
2021/12/29 10:51:32;;;;;;;76.00;27.23;;;;;;;1.87;91.66;100450.19;5014196;28;20057;-48
2021/12/29 10:54:06;;;;;;;85.60;29.80;;;;;;;1.88;91.80;100446.53;5011658;28;20037;-48
2021/12/29 10:56:33;;;;;;;111.85;30.27;;;;;;;1.94;91.88;100454.47;5013685;28;20113;-48
2021/12/29 10:58:59;;;;;;;120.68;33.10;;;;;;;1.93;91.72;100458.13;4998596;28;20038;-48
2021/12/29 11:01:24;;;;;;;83.93;28.08;;;;;;;1.93;91.48;100460.78;5012168;28;20033;-48
2021/12/29 11:03:53;;;;;;;91.32;27.48;;;;;;;1.90;91.57;100463.81;5013563;28;20030;-48
2021/12/29 11:06:23;;;;;;;85.03;28.80;;;;;;;1.92;91.95;100464.44;5011882;28;20029;-48
2021/12/29 11:08:57;;;;;;;78.63;27.52;;;;;;;1.90;91.96;100469.09;5016029;28;20113;-48
2021/12/29 11:11:44;;;;;;;71.70;23.53;;;;;;;1.87;92.39;100474.78;5011181;28;20734;-49
2021/12/29 11:14:13;;;;;;;80.00;26.23;;;;;;;1.91;92.31;100472.56;5011626;28;20072;-49
2021/12/29 11:16:40;;;;;;;84.63;29.00;;;;;;;1.91;92.29;100470.72;5013686;28;20539;-49
2021/12/29 11:19:05;;;;;;;73.03;26.00;;;;;;;1.95;94.15;100474.59;5011030;28;20478;-49